Dorchester, Iowa
Current Conditions -  °F | °C
As of 9:55 AM on Wednesday 28 Jan 2015 (Local Time) from KDEH Reporting Station
Moderate Fog Moderate Fog  
Wind Chill: 13°   Ceiling: 300
Heat Index: 27°   Visibility: 0.5mi
Dew Point: 27°   Wind: 18mph
Humidity: 100%   Direction: 150°SSE
Pressure: 30.04"   Gusts: 24mph
Location:  43.48°N, 91.51°W
Report Text: KDEH 281555Z AUTO 15016G21KT 1/2SM FZFG OVC003 M03/M03 A3004 RMK AO2
Loading
Personal Weather Stations






























Interactive Weather Map New forecast layout! Learn more

10-Day Weather Forecast

Advertisements
Track Severe Weather on mobile